createdAt,value
2018-12-30T00:00:59.780Z,10.47
2018-12-30T00:03:28.028Z,10.17
2018-12-30T00:05:56.893Z,10.57
2018-12-30T00:08:25.428Z,9.13
2018-12-30T00:10:53.958Z,8.23
2018-12-30T00:13:22.591Z,8.03
2018-12-30T00:15:50.686Z,8.23
2018-12-30T00:18:18.968Z,8.13
2018-12-30T00:20:47.053Z,8.87
2018-12-30T00:23:15.499Z,9.73
2018-12-30T00:25:43.704Z,9.17
2018-12-30T00:28:11.874Z,8.50
2018-12-30T00:30:40.437Z,8.67
2018-12-30T00:33:08.680Z,8.13
2018-12-30T00:35:36.837Z,9.10
2018-12-30T00:38:05.552Z,8.47
2018-12-30T00:40:34.107Z,8.33
2018-12-30T00:43:03.193Z,8.53
2018-12-30T00:45:31.722Z,7.80
2018-12-30T00:48:00.253Z,8.07
2018-12-30T00:50:28.341Z,7.87
2018-12-30T00:52:56.468Z,7.80
2018-12-30T00:55:24.895Z,7.60
2018-12-30T00:57:53.481Z,7.07
2018-12-30T01:00:21.546Z,7.67
2018-12-30T01:02:49.689Z,8.00
2018-12-30T01:05:17.810Z,7.13
2018-12-30T01:07:45.932Z,6.97
2018-12-30T01:10:14.111Z,8.17
2018-12-30T01:12:42.224Z,7.33
2018-12-30T01:15:10.504Z,8.03
2018-12-30T01:17:38.636Z,7.87
2018-12-30T01:20:07.008Z,7.83
2018-12-30T01:22:35.651Z,7.83
2018-12-30T01:25:04.161Z,7.50
2018-12-30T01:27:32.233Z,8.40
2018-12-30T01:30:00.357Z,7.97
2018-12-30T01:32:28.757Z,9.37
2018-12-30T01:34:57.629Z,7.33
2018-12-30T01:37:25.808Z,7.27
2018-12-30T01:39:53.984Z,6.73
2018-12-30T01:42:22.140Z,8.03
2018-12-30T01:44:50.314Z,7.33
2018-12-30T01:47:18.425Z,7.10
2018-12-30T01:49:46.513Z,6.37
2018-12-30T01:52:14.741Z,8.27
2018-12-30T01:54:42.909Z,6.70
2018-12-30T01:57:11.029Z,7.07
2018-12-30T01:59:39.153Z,6.97
2018-12-30T02:02:07.584Z,7.03
2018-12-30T02:04:35.657Z,6.93
2018-12-30T02:07:03.980Z,6.23
2018-12-30T02:09:32.492Z,7.40
2018-12-30T02:12:00.619Z,6.87
2018-12-30T02:14:28.698Z,7.60
2018-12-30T02:16:56.908Z,7.57
2018-12-30T02:19:24.979Z,7.40
2018-12-30T02:21:53.272Z,7.23
2018-12-30T02:24:21.440Z,6.50
2018-12-30T02:26:49.572Z,6.60
2018-12-30T02:29:18.203Z,6.33
2018-12-30T02:31:46.280Z,7.13
2018-12-30T02:34:14.501Z,6.40
2018-12-30T02:36:42.651Z,5.87
2018-12-30T02:39:10.821Z,7.67
2018-12-30T02:41:39.586Z,7.30
2018-12-30T02:44:07.822Z,6.80
2018-12-30T02:46:36.329Z,7.43
2018-12-30T02:49:04.631Z,8.30
2018-12-30T02:51:32.778Z,6.80
2018-12-30T02:54:01.258Z,6.80
2018-12-30T02:56:29.439Z,5.93
2018-12-30T02:58:57.534Z,6.80
2018-12-30T03:01:25.668Z,6.57
2018-12-30T03:03:53.730Z,6.00
2018-12-30T03:06:22.283Z,7.13
2018-12-30T03:08:50.349Z,7.20
2018-12-30T03:11:18.566Z,6.57
2018-12-30T03:13:46.655Z,7.30
2018-12-30T03:16:14.752Z,6.37
2018-12-30T03:18:42.886Z,6.37
2018-12-30T03:21:11.381Z,4.87
2018-12-30T03:23:39.505Z,4.80
2018-12-30T03:26:07.586Z,4.93
2018-12-30T03:28:35.723Z,4.70
2018-12-30T03:31:03.865Z,4.20
2018-12-30T03:33:32.055Z,4.63
2018-12-30T03:36:00.189Z,4.13
2018-12-30T03:38:28.373Z,3.67
2018-12-30T03:40:56.438Z,4.13
2018-12-30T03:43:24.558Z,4.17
2018-12-30T03:45:52.662Z,4.90
2018-12-30T03:48:21.157Z,4.13
2018-12-30T03:50:49.430Z,3.47
2018-12-30T03:53:17.504Z,4.10
2018-12-30T03:55:45.973Z,3.47
2018-12-30T03:58:14.062Z,3.73
2018-12-30T04:00:42.197Z,3.70
2018-12-30T04:03:10.379Z,4.27
2018-12-30T04:05:38.498Z,3.87
2018-12-30T04:08:06.791Z,4.10
2018-12-30T04:10:34.917Z,3.57
2018-12-30T04:13:03.138Z,4.50
2018-12-30T04:15:31.261Z,4.27
2018-12-30T04:17:59.794Z,3.67
2018-12-30T04:20:27.918Z,3.57
2018-12-30T04:22:55.994Z,3.83
2018-12-30T04:25:24.637Z,3.87
2018-12-30T04:27:52.710Z,4.13
2018-12-30T04:30:20.830Z,4.33
2018-12-30T04:32:48.896Z,4.20
2018-12-30T04:35:17.024Z,4.67
2018-12-30T04:37:45.148Z,4.67
2018-12-30T04:40:13.265Z,4.00
2018-12-30T04:42:41.349Z,4.50
2018-12-30T04:45:09.470Z,4.27
2018-12-30T04:47:37.603Z,4.50
2018-12-30T04:50:05.946Z,3.90
2018-12-30T04:52:34.020Z,4.00
2018-12-30T04:55:02.155Z,4.00
2018-12-30T04:57:30.213Z,4.53
2018-12-30T04:59:58.834Z,4.30
2018-12-30T05:02:26.909Z,4.30
2018-12-30T05:04:55.153Z,3.93
2018-12-30T05:07:23.320Z,3.53
2018-12-30T05:09:51.445Z,3.87
2018-12-30T05:12:19.514Z,5.10
2018-12-30T05:14:48.418Z,4.27
2018-12-30T05:17:16.629Z,3.67
2018-12-30T05:19:44.742Z,3.53
2018-12-30T05:22:12.837Z,3.83
2018-12-30T05:24:41.065Z,4.07
2018-12-30T05:27:09.214Z,3.80
2018-12-30T05:29:37.570Z,4.33
2018-12-30T05:32:05.752Z,4.27
2018-12-30T05:34:33.879Z,3.93
2018-12-30T05:37:02.110Z,4.30
2018-12-30T05:39:30.236Z,4.63
2018-12-30T05:41:58.297Z,4.30
2018-12-30T05:44:26.517Z,4.30
2018-12-30T05:46:54.613Z,4.13
2018-12-30T05:49:23.177Z,3.50
2018-12-30T05:51:51.247Z,3.10
2018-12-30T05:54:19.375Z,3.97
2018-12-30T05:56:47.466Z,3.47
2018-12-30T05:59:15.694Z,3.40
2018-12-30T06:01:44.193Z,3.53
2018-12-30T06:04:12.840Z,3.37
2018-12-30T06:06:40.918Z,3.70
2018-12-30T06:09:08.992Z,4.20
2018-12-30T06:11:37.114Z,3.67
2018-12-30T06:14:05.195Z,3.77
2018-12-30T06:16:33.312Z,3.07
2018-12-30T06:19:01.383Z,3.30
2018-12-30T06:21:29.508Z,4.80
2018-12-30T06:23:57.589Z,4.17
2018-12-30T06:26:25.709Z,3.70
2018-12-30T06:28:53.936Z,3.97
2018-12-30T06:31:22.490Z,3.93
2018-12-30T06:33:50.561Z,4.37
2018-12-30T06:36:18.828Z,3.83
2018-12-30T06:38:46.958Z,4.53
2018-12-30T06:41:15.085Z,5.10
2018-12-30T06:43:43.167Z,4.20
2018-12-30T06:46:11.302Z,4.43
2018-12-30T06:48:39.372Z,4.10
2018-12-30T06:51:07.930Z,4.80
2018-12-30T06:53:36.016Z,3.73
2018-12-30T06:56:04.289Z,4.30
2018-12-30T06:58:32.364Z,5.03
2018-12-30T07:01:00.485Z,5.10
2018-12-30T07:03:28.555Z,4.13
2018-12-30T07:05:56.669Z,4.27
2018-12-30T07:08:24.765Z,4.10
2018-12-30T07:10:52.888Z,4.90
2018-12-30T07:13:20.970Z,3.80
2018-12-30T07:15:49.098Z,3.43
2018-12-30T07:18:17.167Z,4.50
2018-12-30T07:20:45.290Z,5.83
2018-12-30T07:23:13.374Z,3.90
2018-12-30T07:25:41.898Z,5.17
2018-12-30T07:28:09.967Z,4.70
2018-12-30T07:30:38.146Z,4.47
2018-12-30T07:33:06.632Z,4.53
2018-12-30T07:35:34.761Z,4.33
2018-12-30T07:38:02.876Z,4.10
2018-12-30T07:40:30.997Z,3.90
2018-12-30T07:42:59.068Z,3.50
2018-12-30T07:45:27.748Z,3.37
2018-12-30T07:47:55.813Z,3.43
2018-12-30T07:50:23.936Z,4.30
2018-12-30T07:52:52.549Z,5.30
2018-12-30T07:55:20.767Z,3.70
2018-12-30T07:57:48.836Z,2.87
2018-12-30T08:00:16.988Z,4.00
2018-12-30T08:02:45.052Z,2.33
2018-12-30T08:05:13.276Z,3.87
2018-12-30T08:07:41.337Z,3.60
2018-12-30T08:10:09.577Z,4.50
2018-12-30T08:12:37.645Z,3.80
2018-12-30T08:15:06.111Z,4.10
2018-12-30T08:17:34.172Z,4.00
2018-12-30T08:20:02.254Z,1.57
2018-12-30T08:22:30.365Z,1.30
2018-12-30T08:24:58.434Z,1.83
2018-12-30T08:27:26.611Z,1.33
2018-12-30T08:29:54.693Z,1.57
2018-12-30T08:32:22.812Z,1.57
2018-12-30T08:34:50.881Z,1.63
2018-12-30T08:37:19.004Z,1.57
2018-12-30T08:39:47.598Z,1.60
2018-12-30T08:42:15.713Z,1.30
2018-12-30T08:44:43.785Z,1.73
2018-12-30T08:47:11.905Z,1.67
2018-12-30T08:49:39.988Z,1.50
2018-12-30T08:52:08.096Z,1.20
2018-12-30T08:54:36.160Z,1.27
2018-12-30T08:57:04.479Z,1.20
2018-12-30T08:59:32.576Z,0.93
2018-12-30T09:02:00.704Z,1.30
2018-12-30T09:04:29.005Z,1.00
2018-12-30T09:06:57.282Z,1.20
2018-12-30T09:09:25.480Z,1.10
2018-12-30T09:11:53.761Z,1.10
2018-12-30T09:14:22.300Z,0.97
2018-12-30T09:16:52.861Z,1.10
2018-12-30T09:19:21.021Z,0.70
2018-12-30T09:21:49.301Z,1.00
2018-12-30T09:24:17.400Z,0.80
2018-12-30T09:26:45.580Z,1.20
2018-12-30T09:29:13.645Z,1.00
2018-12-30T09:31:41.792Z,0.90
2018-12-30T09:34:09.920Z,1.47
2018-12-30T09:36:38.140Z,0.90
2018-12-30T09:39:07.338Z,1.10
2018-12-30T09:41:35.562Z,1.13
2018-12-30T09:44:03.876Z,1.47
2018-12-30T09:46:32.207Z,0.80
2018-12-30T09:49:00.300Z,0.80
2018-12-30T09:51:28.519Z,1.07
2018-12-30T09:53:57.072Z,1.10
2018-12-30T09:56:25.265Z,0.80
2018-12-30T09:58:53.749Z,0.90
2018-12-30T10:01:21.993Z,1.80
2018-12-30T10:03:50.506Z,1.20
2018-12-30T10:06:18.750Z,1.20
2018-12-30T10:08:46.956Z,1.57
2018-12-30T10:11:15.121Z,1.27
2018-12-30T10:13:43.277Z,1.20
2018-12-30T10:16:11.521Z,1.23
2018-12-30T10:18:39.637Z,0.73
2018-12-30T10:21:07.870Z,0.97
2018-12-30T10:23:36.067Z,0.80
2018-12-30T10:26:04.441Z,1.00
2018-12-30T10:28:32.643Z,0.80
2018-12-30T10:31:01.553Z,0.80
2018-12-30T10:33:31.592Z,0.70
2018-12-30T10:35:59.723Z,0.70
2018-12-30T10:38:28.012Z,0.70
2018-12-30T10:40:56.432Z,0.70
2018-12-30T10:43:24.569Z,0.80
2018-12-30T10:45:52.784Z,1.80
2018-12-30T10:48:20.896Z,1.00
2018-12-30T10:50:48.980Z,0.97
2018-12-30T10:53:17.283Z,1.33
2018-12-30T10:55:45.881Z,1.10
2018-12-30T10:58:14.002Z,1.00
2018-12-30T11:00:42.270Z,1.13
2018-12-30T11:03:10.820Z,0.80
2018-12-30T11:05:38.997Z,0.87
2018-12-30T11:08:07.108Z,1.30
2018-12-30T11:10:35.181Z,0.90
2018-12-30T11:13:03.557Z,1.37
2018-12-30T11:15:32.199Z,1.20
2018-12-30T11:18:00.313Z,0.73
2018-12-30T11:20:28.375Z,0.90
2018-12-30T11:22:56.590Z,1.10
2018-12-30T11:25:24.656Z,1.20
2018-12-30T11:27:52.772Z,1.50
2018-12-30T11:30:20.840Z,1.70
2018-12-30T11:32:48.974Z,2.40
2018-12-30T11:35:17.037Z,0.80
2018-12-30T11:37:45.173Z,1.37
2018-12-30T11:40:13.401Z,2.30
2018-12-30T11:42:41.540Z,1.40
2018-12-30T11:45:09.696Z,1.77
2018-12-30T11:47:37.830Z,1.77
2018-12-30T11:50:07.308Z,1.33
2018-12-30T11:52:35.547Z,0.67
2018-12-30T11:55:03.928Z,0.70
2018-12-30T11:57:32.067Z,1.10
2018-12-30T12:00:00.255Z,0.43
2018-12-30T12:02:28.355Z,0.60
2018-12-30T12:04:56.413Z,0.47
2018-12-30T12:07:25.100Z,0.40
2018-12-30T12:09:53.165Z,0.50
2018-12-30T12:12:21.279Z,0.40
2018-12-30T12:14:49.555Z,0.43
2018-12-30T12:17:17.664Z,0.10
2018-12-30T12:19:45.725Z,0.40
2018-12-30T12:22:13.852Z,0.30
2018-12-30T12:24:42.393Z,0.87
2018-12-30T12:27:10.605Z,0.30
2018-12-30T12:29:38.661Z,0.20
2018-12-30T12:32:06.782Z,0.77
2018-12-30T12:34:34.852Z,0.20
2018-12-30T12:37:03.066Z,0.20
2018-12-30T12:39:31.190Z,0.37
2018-12-30T12:41:59.406Z,0.20
2018-12-30T12:44:27.771Z,0.20
2018-12-30T12:46:56.048Z,0.20
2018-12-30T12:49:25.854Z,0.20
2018-12-30T12:51:54.029Z,0.10
2018-12-30T12:54:22.145Z,0.20
2018-12-30T12:56:50.432Z,0.10
2018-12-30T12:59:18.614Z,0.10
2018-12-30T13:01:48.179Z,0.20
2018-12-30T13:04:17.052Z,0.20
2018-12-30T13:06:45.172Z,0.10
2018-12-30T13:09:13.382Z,0.20
2018-12-30T13:11:41.472Z,0.10
2018-12-30T13:14:09.664Z,0.10
2018-12-30T13:16:37.749Z,0.10
2018-12-30T13:19:05.894Z,0.30
2018-12-30T13:21:34.082Z,0.10
2018-12-30T13:24:03.288Z,0.20
2018-12-30T13:26:31.505Z,0.20
2018-12-30T13:28:59.720Z,0.10
2018-12-30T13:31:28.530Z,0.10
2018-12-30T13:33:56.721Z,0.10
2018-12-30T13:36:25.370Z,0.10
2018-12-30T13:38:54.034Z,0.20
2018-12-30T13:41:22.269Z,0.20
2018-12-30T13:43:50.459Z,0.27
2018-12-30T13:46:18.771Z,0.10
2018-12-30T13:48:47.085Z,0.10
2018-12-30T13:51:15.381Z,0.33
2018-12-30T13:53:43.574Z,0.20
2018-12-30T13:56:11.762Z,0.10
2018-12-30T13:58:40.188Z,0.20
2018-12-30T14:01:08.381Z,0.10
2018-12-30T14:03:36.641Z,0.10
2018-12-30T14:06:04.929Z,0.10
2018-12-30T14:08:33.097Z,0.20
2018-12-30T14:11:01.328Z,0.10
2018-12-30T14:13:29.377Z,0.30
2018-12-30T14:15:58.049Z,0.20
2018-12-30T14:18:26.234Z,0.20
2018-12-30T14:20:54.354Z,0.20
2018-12-30T14:23:22.535Z,0.30
2018-12-30T14:25:52.452Z,0.40
2018-12-30T14:28:20.569Z,0.60
2018-12-30T14:30:48.784Z,0.53
2018-12-30T14:33:16.848Z,0.60
2018-12-30T14:35:45.044Z,0.50
2018-12-30T14:38:13.212Z,1.70
2018-12-30T14:40:41.632Z,0.50
2018-12-30T14:43:09.808Z,0.80
2018-12-30T14:45:37.889Z,0.50
2018-12-30T14:48:06.021Z,0.60
2018-12-30T14:50:34.093Z,0.50
2018-12-30T14:53:02.380Z,0.53
2018-12-30T14:55:30.468Z,0.50
2018-12-30T14:57:59.053Z,0.40
2018-12-30T15:00:27.156Z,0.40
2018-12-30T15:02:56.255Z,0.50
2018-12-30T15:05:24.865Z,0.40
2018-12-30T15:07:53.022Z,0.20
2018-12-30T15:10:21.217Z,0.40
2018-12-30T15:12:49.369Z,0.30
2018-12-30T15:15:17.473Z,0.30
2018-12-30T15:17:45.601Z,0.40
2018-12-30T15:20:13.781Z,0.50
2018-12-30T15:22:41.930Z,0.40
2018-12-30T15:25:12.056Z,0.60
2018-12-30T15:27:40.441Z,0.60
2018-12-30T15:30:09.214Z,0.40
2018-12-30T15:32:37.401Z,0.30
2018-12-30T15:35:05.760Z,0.60
2018-12-30T15:37:33.981Z,0.60
2018-12-30T15:40:02.129Z,0.60
2018-12-30T15:42:30.265Z,0.60
2018-12-30T15:44:58.478Z,0.50
2018-12-30T15:47:26.605Z,0.50
2018-12-30T15:49:55.744Z,0.50
2018-12-30T15:52:28.976Z,0.60
2018-12-30T15:55:19.559Z,0.50
2018-12-30T15:57:46.579Z,0.50
2018-12-30T16:00:14.918Z,0.50
2018-12-30T16:02:43.009Z,0.50
2018-12-30T16:05:11.097Z,0.50
2018-12-30T16:07:39.700Z,0.67
2018-12-30T16:10:08.551Z,0.63
2018-12-30T16:12:36.793Z,0.60
2018-12-30T16:15:05.217Z,0.60
2018-12-30T16:17:33.296Z,0.70
2018-12-30T16:20:01.532Z,0.50
2018-12-30T16:22:29.645Z,0.60
2018-12-30T16:25:11.354Z,0.83
2018-12-30T16:27:39.455Z,0.53
2018-12-30T16:30:08.904Z,0.70
2018-12-30T16:32:37.008Z,0.70
2018-12-30T16:35:05.285Z,0.70
2018-12-30T16:37:33.405Z,0.80
2018-12-30T16:40:01.559Z,0.57
2018-12-30T16:42:29.761Z,0.50
2018-12-30T16:44:57.937Z,0.60
2018-12-30T16:47:26.013Z,0.50
2018-12-30T16:49:54.928Z,0.50
2018-12-30T16:52:23.417Z,0.50
2018-12-30T16:54:51.557Z,0.40
2018-12-30T16:57:20.118Z,0.40
2018-12-30T16:59:48.234Z,0.30
2018-12-30T17:02:16.325Z,0.50
2018-12-30T17:04:44.565Z,0.40
2018-12-30T17:07:12.766Z,0.80
2018-12-30T17:09:40.918Z,0.50
2018-12-30T17:12:09.121Z,0.40
2018-12-30T17:14:37.245Z,0.40
2018-12-30T17:17:06.477Z,0.40
2018-12-30T17:19:34.788Z,0.60
2018-12-30T17:22:02.977Z,0.30
2018-12-30T17:24:31.132Z,0.30
2018-12-30T17:26:59.598Z,0.30
2018-12-30T17:29:27.749Z,0.30
2018-12-30T17:31:55.840Z,0.30
2018-12-30T17:34:23.988Z,0.30
2018-12-30T17:36:52.060Z,0.30
2018-12-30T17:39:20.256Z,0.27
2018-12-30T17:41:48.492Z,0.30
2018-12-30T17:44:17.487Z,0.30
2018-12-30T17:46:45.701Z,0.30
2018-12-30T17:49:13.913Z,0.30
2018-12-30T17:51:41.998Z,0.23
2018-12-30T17:54:15.107Z,0.40
2018-12-30T17:56:40.033Z,0.30
2018-12-30T17:59:14.942Z,0.30
2018-12-30T18:01:43.505Z,0.43
2018-12-30T18:04:11.676Z,0.37
2018-12-30T18:06:39.784Z,0.20
2018-12-30T18:09:07.933Z,0.30
2018-12-30T18:11:36.028Z,0.30
2018-12-30T18:14:04.251Z,0.33
2018-12-30T18:16:32.354Z,0.27
2018-12-30T18:19:00.861Z,0.33
2018-12-30T18:21:28.942Z,0.30
2018-12-30T18:24:00.796Z,0.20
2018-12-30T18:26:28.881Z,0.27
2018-12-30T18:28:57.013Z,0.33
2018-12-30T18:31:36.878Z,0.90
2018-12-30T18:34:11.466Z,1.10
2018-12-30T18:36:43.964Z,0.77
2018-12-30T18:39:16.312Z,0.63
2018-12-30T18:41:44.555Z,0.93
2018-12-30T18:44:14.095Z,2.40
2018-12-30T18:46:42.232Z,2.40
2018-12-30T18:49:10.349Z,2.83
2018-12-30T18:51:38.488Z,2.00
2018-12-30T18:58:54.183Z,1.00
2018-12-30T19:01:22.339Z,0.90
2018-12-30T19:03:50.445Z,1.13
2018-12-30T19:06:20.519Z,0.87
2018-12-30T19:08:48.596Z,1.20
2018-12-30T19:11:19.456Z,1.10
2018-12-30T19:13:47.546Z,1.10
2018-12-30T19:16:15.862Z,1.40
2018-12-30T19:18:44.089Z,2.63
2018-12-30T19:21:12.176Z,3.00
2018-12-30T19:23:40.309Z,1.40
2018-12-30T19:26:14.284Z,1.63
2018-12-30T19:28:38.699Z,0.97
2018-12-30T19:31:14.557Z,1.13
2018-12-30T19:33:46.352Z,0.97
2018-12-30T19:36:26.213Z,2.00
2018-12-30T19:39:00.375Z,1.40
2018-12-30T19:41:33.193Z,1.57
2018-12-30T19:44:01.509Z,2.13
2018-12-30T19:46:29.643Z,2.70
2018-12-30T19:48:58.876Z,2.60
2018-12-30T19:51:26.965Z,2.30
2018-12-30T19:53:55.060Z,2.00
2018-12-30T19:56:23.563Z,1.80
2018-12-30T19:58:51.657Z,1.77
2018-12-30T20:01:19.789Z,1.20
2018-12-30T20:03:47.885Z,1.50
2018-12-30T20:06:16.110Z,1.20
2018-12-30T20:08:44.604Z,2.23
2018-12-30T20:11:13.208Z,1.10
2018-12-30T20:13:41.288Z,1.27
2018-12-30T20:16:09.409Z,1.10
2018-12-30T20:18:37.496Z,1.37
2018-12-30T20:21:05.629Z,1.27
2018-12-30T20:23:34.266Z,2.00
2018-12-30T20:26:02.478Z,1.50
2018-12-30T20:28:30.560Z,1.50
2018-12-30T20:30:58.693Z,1.70
2018-12-30T20:33:26.787Z,1.77
2018-12-30T20:35:54.929Z,2.30
2018-12-30T20:38:23.117Z,2.30
2018-12-30T20:40:51.310Z,1.90
2018-12-30T20:43:19.452Z,3.33
2018-12-30T20:45:47.646Z,3.57
2018-12-30T20:48:15.825Z,3.47
2018-12-30T20:50:44.396Z,3.23
2018-12-30T20:53:12.477Z,1.90
2018-12-30T20:55:40.610Z,1.33
2018-12-30T20:58:08.702Z,1.10
2018-12-30T21:00:36.836Z,1.30
2018-12-30T21:03:05.185Z,1.23
2018-12-30T21:05:33.410Z,1.47
2018-12-30T21:08:01.498Z,1.47
2018-12-30T21:10:29.625Z,1.03
2018-12-30T21:12:58.182Z,1.20
2018-12-30T21:15:26.396Z,1.50
2018-12-30T21:17:54.485Z,1.40
2018-12-30T21:20:23.286Z,1.33
2018-12-30T21:22:51.862Z,1.50
2018-12-30T21:25:19.946Z,1.60
2018-12-30T21:27:48.072Z,1.20
2018-12-30T21:30:16.360Z,1.20
2018-12-30T21:32:44.491Z,1.27
2018-12-30T21:35:12.570Z,1.40
2018-12-30T21:37:40.705Z,1.40
2018-12-30T21:40:08.990Z,1.40
2018-12-30T21:42:43.753Z,1.30
2018-12-30T21:45:08.373Z,1.40
2018-12-30T21:47:36.894Z,1.50
2018-12-30T21:50:06.197Z,1.60
2018-12-30T21:52:34.298Z,1.43
2018-12-30T21:55:02.453Z,1.47
2018-12-30T21:57:30.554Z,1.50
2018-12-30T22:00:01.095Z,1.57
2018-12-30T22:02:29.182Z,1.87
2018-12-30T22:04:57.721Z,3.67
2018-12-30T22:07:25.839Z,3.30
2018-12-30T22:09:54.371Z,2.73
2018-12-30T22:12:22.520Z,3.70
2018-12-30T22:14:50.673Z,1.00
2018-12-30T22:17:19.169Z,1.40
2018-12-30T22:19:47.284Z,1.20
2018-12-30T22:22:15.420Z,1.13
2018-12-30T22:24:43.948Z,1.30
2018-12-30T22:27:15.271Z,2.10
2018-12-30T22:29:43.388Z,2.17
2018-12-30T22:32:11.521Z,2.73
2018-12-30T22:34:39.727Z,3.70
2018-12-30T22:37:07.896Z,3.53
2018-12-30T22:39:35.988Z,3.20
2018-12-30T22:42:04.226Z,2.20
2018-12-30T22:44:32.349Z,1.40
2018-12-30T22:47:00.490Z,1.03
2018-12-30T22:49:28.585Z,1.43
2018-12-30T22:51:56.747Z,1.50
2018-12-30T22:54:24.839Z,2.13
2018-12-30T22:56:52.967Z,1.60
2018-12-30T22:59:21.059Z,2.70
2018-12-30T23:01:49.424Z,2.27
2018-12-30T23:04:17.497Z,3.67
2018-12-30T23:06:45.737Z,3.40
2018-12-30T23:09:13.961Z,3.10
2018-12-30T23:11:42.528Z,3.07
2018-12-30T23:14:10.610Z,2.97
2018-12-30T23:16:39.197Z,3.20
2018-12-30T23:19:07.289Z,2.73
2018-12-30T23:21:35.783Z,2.73
2018-12-30T23:24:03.972Z,2.73
2018-12-30T23:26:32.098Z,2.40
2018-12-30T23:29:00.174Z,2.83
2018-12-30T23:31:28.729Z,2.57
2018-12-30T23:33:56.814Z,2.60
2018-12-30T23:36:24.953Z,3.03
2018-12-30T23:38:53.041Z,2.60
2018-12-30T23:41:21.161Z,3.03
2018-12-30T23:43:49.411Z,2.63
2018-12-30T23:46:17.603Z,1.83
2018-12-30T23:48:45.684Z,2.20
2018-12-30T23:51:13.824Z,2.17
2018-12-30T23:53:42.432Z,1.40
2018-12-30T23:56:10.575Z,1.47
2018-12-30T23:58:38.656Z,1.50
